sensor_id;sensor_type;location;lat;lon;timestamp;temperature;humidity
9542;DHT22;4809;48.224;8.572;2023-05-24T00:01:34;12.80;99.90
9542;DHT22;4809;48.224;8.572;2023-05-24T00:04:02;12.70;99.90
9542;DHT22;4809;48.224;8.572;2023-05-24T00:06:28;12.70;99.90
9542;DHT22;4809;48.224;8.572;2023-05-24T00:08:54;12.70;99.90
9542;DHT22;4809;48.224;8.572;2023-05-24T00:11:21;12.70;99.90
9542;DHT22;4809;48.224;8.572;2023-05-24T00:13:47;12.70;99.90
9542;DHT22;4809;48.224;8.572;2023-05-24T00:16:13;12.70;99.90
9542;DHT22;4809;48.224;8.572;2023-05-24T00:18:38;12.70;99.90
9542;DHT22;4809;48.224;8.572;2023-05-24T00:21:09;12.70;99.90
9542;DHT22;4809;48.224;8.572;2023-05-24T00:23:35;12.70;99.90
9542;DHT22;4809;48.224;8.572;2023-05-24T00:26:02;12.70;99.90
9542;DHT22;4809;48.224;8.572;2023-05-24T00:28:28;12.70;99.90
9542;DHT22;4809;48.224;8.572;2023-05-24T00:30:53;12.70;99.90
9542;DHT22;4809;48.224;8.572;2023-05-24T00:33:19;12.70;99.90
9542;DHT22;4809;48.224;8.572;2023-05-24T00:35:48;12.70;99.90
9542;DHT22;4809;48.224;8.572;2023-05-24T00:38:13;12.60;99.90
9542;DHT22;4809;48.224;8.572;2023-05-24T00:40:39;12.60;99.90
9542;DHT22;4809;48.224;8.572;2023-05-24T00:43:05;12.70;99.90
9542;DHT22;4809;48.224;8.572;2023-05-24T00:45:31;12.70;99.90
9542;DHT22;4809;48.224;8.572;2023-05-24T00:47:56;12.70;99.90
9542;DHT22;4809;48.224;8.572;2023-05-24T00:50:22;12.60;99.90
9542;DHT22;4809;48.224;8.572;2023-05-24T00:52:49;12.60;99.90
9542;DHT22;4809;48.224;8.572;2023-05-24T00:55:16;12.60;99.90
9542;DHT22;4809;48.224;8.572;2023-05-24T00:57:41;12.60;99.90
9542;DHT22;4809;48.224;8.572;2023-05-24T01:00:08;12.70;99.90
9542;DHT22;4809;48.224;8.572;2023-05-24T01:02:34;12.50;99.90
9542;DHT22;4809;48.224;8.572;2023-05-24T01:04:59;12.50;99.90
9542;DHT22;4809;48.224;8.572;2023-05-24T01:07:58;12.50;99.90
9542;DHT22;4809;48.224;8.572;2023-05-24T01:10:42;12.40;99.90
9542;DHT22;4809;48.224;8.572;2023-05-24T01:16:11;12.30;99.90
9542;DHT22;4809;48.224;8.572;2023-05-24T01:18:56;12.40;99.90
9542;DHT22;4809;48.224;8.572;2023-05-24T01:21:56;12.40;99.90
9542;DHT22;4809;48.224;8.572;2023-05-24T01:24:43;12.30;99.90
9542;DHT22;4809;48.224;8.572;2023-05-24T01:27:18;12.40;99.90
9542;DHT22;4809;48.224;8.572;2023-05-24T01:29:45;12.40;99.90
9542;DHT22;4809;48.224;8.572;2023-05-24T01:32:18;12.40;99.90
9542;DHT22;4809;48.224;8.572;2023-05-24T01:34:44;12.40;99.90
9542;DHT22;4809;48.224;8.572;2023-05-24T01:37:09;12.40;99.90
9542;DHT22;4809;48.224;8.572;2023-05-24T01:39:35;12.30;99.90
9542;DHT22;4809;48.224;8.572;2023-05-24T01:42:25;12.30;99.90
9542;DHT22;4809;48.224;8.572;2023-05-24T01:50:24;12.30;99.90
9542;DHT22;4809;48.224;8.572;2023-05-24T01:52:51;12.30;99.90
9542;DHT22;4809;48.224;8.572;2023-05-24T01:55:18;12.20;99.90
9542;DHT22;4809;48.224;8.572;2023-05-24T01:57:45;12.20;99.90
9542;DHT22;4809;48.224;8.572;2023-05-24T02:00:17;12.10;99.90
9542;DHT22;4809;48.224;8.572;2023-05-24T02:02:44;12.00;99.90
9542;DHT22;4809;48.224;8.572;2023-05-24T02:05:10;12.00;99.90
9542;DHT22;4809;48.224;8.572;2023-05-24T02:07:38;12.00;99.90
9542;DHT22;4809;48.224;8.572;2023-05-24T02:10:06;12.00;99.90
9542;DHT22;4809;48.224;8.572;2023-05-24T02:12:31;12.00;99.90
9542;DHT22;4809;48.224;8.572;2023-05-24T02:14:57;11.90;99.90
9542;DHT22;4809;48.224;8.572;2023-05-24T02:17:23;11.90;99.90
9542;DHT22;4809;48.224;8.572;2023-05-24T02:19:51;11.80;99.90
9542;DHT22;4809;48.224;8.572;2023-05-24T02:22:18;11.80;99.90
9542;DHT22;4809;48.224;8.572;2023-05-24T02:24:46;11.80;99.90
9542;DHT22;4809;48.224;8.572;2023-05-24T02:27:12;11.80;99.90
9542;DHT22;4809;48.224;8.572;2023-05-24T02:29:38;11.80;99.90
9542;DHT22;4809;48.224;8.572;2023-05-24T02:32:06;11.80;99.90
9542;DHT22;4809;48.224;8.572;2023-05-24T02:34:31;11.80;99.90
9542;DHT22;4809;48.224;8.572;2023-05-24T02:36:57;11.80;99.90
9542;DHT22;4809;48.224;8.572;2023-05-24T02:39:23;11.80;99.90
9542;DHT22;4809;48.224;8.572;2023-05-24T02:41:48;11.80;99.90
9542;DHT22;4809;48.224;8.572;2023-05-24T02:44:14;11.80;99.90
9542;DHT22;4809;48.224;8.572;2023-05-24T02:46:40;11.70;99.90
9542;DHT22;4809;48.224;8.572;2023-05-24T02:49:06;11.70;99.90
9542;DHT22;4809;48.224;8.572;2023-05-24T02:51:31;11.70;99.90
9542;DHT22;4809;48.224;8.572;2023-05-24T02:53:57;11.70;99.90
9542;DHT22;4809;48.224;8.572;2023-05-24T02:56:23;11.70;99.90
9542;DHT22;4809;48.224;8.572;2023-05-24T02:58:51;11.70;99.90
9542;DHT22;4809;48.224;8.572;2023-05-24T03:01:21;11.60;99.90
9542;DHT22;4809;48.224;8.572;2023-05-24T03:03:47;11.60;99.90
9542;DHT22;4809;48.224;8.572;2023-05-24T03:06:13;11.60;99.90
9542;DHT22;4809;48.224;8.572;2023-05-24T03:08:40;11.50;99.90
9542;DHT22;4809;48.224;8.572;2023-05-24T03:11:05;11.50;99.90
9542;DHT22;4809;48.224;8.572;2023-05-24T03:13:31;11.50;99.90
9542;DHT22;4809;48.224;8.572;2023-05-24T03:15:57;11.50;99.90
9542;DHT22;4809;48.224;8.572;2023-05-24T03:18:23;11.60;99.90
9542;DHT22;4809;48.224;8.572;2023-05-24T03:20:49;11.60;99.90
9542;DHT22;4809;48.224;8.572;2023-05-24T03:23:14;11.60;99.90
9542;DHT22;4809;48.224;8.572;2023-05-24T03:25:40;11.60;99.90
9542;DHT22;4809;48.224;8.572;2023-05-24T03:28:06;11.60;99.90
9542;DHT22;4809;48.224;8.572;2023-05-24T03:30:32;11.50;99.90
9542;DHT22;4809;48.224;8.572;2023-05-24T03:32:58;11.50;99.90
9542;DHT22;4809;48.224;8.572;2023-05-24T03:35:23;11.40;99.90
9542;DHT22;4809;48.224;8.572;2023-05-24T03:37:49;11.20;99.90
9542;DHT22;4809;48.224;8.572;2023-05-24T03:40:15;11.20;99.90
9542;DHT22;4809;48.224;8.572;2023-05-24T03:42:41;11.10;99.90
9542;DHT22;4809;48.224;8.572;2023-05-24T03:45:07;11.10;99.90
9542;DHT22;4809;48.224;8.572;2023-05-24T03:47:33;11.20;99.90
9542;DHT22;4809;48.224;8.572;2023-05-24T03:49:58;11.20;99.90
9542;DHT22;4809;48.224;8.572;2023-05-24T03:52:24;11.20;99.90
9542;DHT22;4809;48.224;8.572;2023-05-24T03:54:50;11.20;99.90
9542;DHT22;4809;48.224;8.572;2023-05-24T03:57:16;11.20;99.90
9542;DHT22;4809;48.224;8.572;2023-05-24T03:59:42;11.00;99.90
9542;DHT22;4809;48.224;8.572;2023-05-24T04:02:07;10.90;99.90
9542;DHT22;4809;48.224;8.572;2023-05-24T04:04:33;10.90;99.90
9542;DHT22;4809;48.224;8.572;2023-05-24T04:06:59;10.90;99.90
9542;DHT22;4809;48.224;8.572;2023-05-24T04:09:24;10.90;99.90
9542;DHT22;4809;48.224;8.572;2023-05-24T04:11:50;10.90;99.90
9542;DHT22;4809;48.224;8.572;2023-05-24T04:14:16;10.90;99.90
9542;DHT22;4809;48.224;8.572;2023-05-24T04:16:41;10.80;99.90
9542;DHT22;4809;48.224;8.572;2023-05-24T04:19:09;10.90;99.90
9542;DHT22;4809;48.224;8.572;2023-05-24T04:21:36;10.90;99.90
9542;DHT22;4809;48.224;8.572;2023-05-24T04:24:05;10.80;99.90
9542;DHT22;4809;48.224;8.572;2023-05-24T04:26:31;10.80;99.90
9542;DHT22;4809;48.224;8.572;2023-05-24T04:28:59;10.90;99.90
9542;DHT22;4809;48.224;8.572;2023-05-24T04:31:25;10.90;99.90
9542;DHT22;4809;48.224;8.572;2023-05-24T04:33:53;10.90;99.90
9542;DHT22;4809;48.224;8.572;2023-05-24T04:36:20;10.90;99.90
9542;DHT22;4809;48.224;8.572;2023-05-24T04:38:47;10.90;99.90
9542;DHT22;4809;48.224;8.572;2023-05-24T04:41:12;10.90;99.90
9542;DHT22;4809;48.224;8.572;2023-05-24T04:43:38;10.90;99.90
9542;DHT22;4809;48.224;8.572;2023-05-24T04:46:04;11.00;99.90
9542;DHT22;4809;48.224;8.572;2023-05-24T04:48:30;11.00;99.90
9542;DHT22;4809;48.224;8.572;2023-05-24T04:50:57;11.10;99.90
9542;DHT22;4809;48.224;8.572;2023-05-24T04:53:23;11.10;99.90
9542;DHT22;4809;48.224;8.572;2023-05-24T04:55:50;11.10;99.90
9542;DHT22;4809;48.224;8.572;2023-05-24T04:58:17;11.10;99.90
9542;DHT22;4809;48.224;8.572;2023-05-24T05:00:43;11.20;99.90
9542;DHT22;4809;48.224;8.572;2023-05-24T05:03:09;11.20;99.90
9542;DHT22;4809;48.224;8.572;2023-05-24T05:05:36;11.20;99.90
9542;DHT22;4809;48.224;8.572;2023-05-24T05:08:02;11.20;99.90
9542;DHT22;4809;48.224;8.572;2023-05-24T05:10:28;11.30;99.90
9542;DHT22;4809;48.224;8.572;2023-05-24T05:12:54;11.30;99.90
9542;DHT22;4809;48.224;8.572;2023-05-24T05:15:22;11.30;99.90
9542;DHT22;4809;48.224;8.572;2023-05-24T05:17:47;11.50;99.90
9542;DHT22;4809;48.224;8.572;2023-05-24T05:20:13;11.60;99.90
9542;DHT22;4809;48.224;8.572;2023-05-24T05:22:48;11.60;99.90
9542;DHT22;4809;48.224;8.572;2023-05-24T05:25:14;11.60;99.90
9542;DHT22;4809;48.224;8.572;2023-05-24T05:27:39;11.60;99.90
9542;DHT22;4809;48.224;8.572;2023-05-24T05:30:06;11.60;99.90
9542;DHT22;4809;48.224;8.572;2023-05-24T05:32:32;11.60;99.90
9542;DHT22;4809;48.224;8.572;2023-05-24T05:34:58;11.50;99.90
9542;DHT22;4809;48.224;8.572;2023-05-24T05:37:24;11.40;99.90
9542;DHT22;4809;48.224;8.572;2023-05-24T05:39:49;11.40;99.90
9542;DHT22;4809;48.224;8.572;2023-05-24T05:42:15;11.40;99.90
9542;DHT22;4809;48.224;8.572;2023-05-24T05:44:41;11.50;99.90
9542;DHT22;4809;48.224;8.572;2023-05-24T05:47:07;11.50;99.90
9542;DHT22;4809;48.224;8.572;2023-05-24T05:49:33;11.60;99.90
9542;DHT22;4809;48.224;8.572;2023-05-24T05:52:04;11.60;99.90
9542;DHT22;4809;48.224;8.572;2023-05-24T05:54:30;11.60;99.90
9542;DHT22;4809;48.224;8.572;2023-05-24T05:56:56;11.70;99.90
9542;DHT22;4809;48.224;8.572;2023-05-24T05:59:22;11.80;99.90
9542;DHT22;4809;48.224;8.572;2023-05-24T06:01:47;11.70;99.90
9542;DHT22;4809;48.224;8.572;2023-05-24T06:04:14;11.90;99.90
9542;DHT22;4809;48.224;8.572;2023-05-24T06:06:40;11.80;99.90
9542;DHT22;4809;48.224;8.572;2023-05-24T06:09:06;11.90;99.90
9542;DHT22;4809;48.224;8.572;2023-05-24T06:11:31;11.90;99.90
9542;DHT22;4809;48.224;8.572;2023-05-24T06:13:57;11.90;99.90
9542;DHT22;4809;48.224;8.572;2023-05-24T06:16:23;11.90;99.90
9542;DHT22;4809;48.224;8.572;2023-05-24T06:18:48;11.90;99.90
9542;DHT22;4809;48.224;8.572;2023-05-24T06:21:15;11.80;99.90
9542;DHT22;4809;48.224;8.572;2023-05-24T06:23:41;11.80;99.90
9542;DHT22;4809;48.224;8.572;2023-05-24T06:26:07;11.80;99.90
9542;DHT22;4809;48.224;8.572;2023-05-24T06:28:36;11.70;99.90
9542;DHT22;4809;48.224;8.572;2023-05-24T06:31:03;11.80;99.90
9542;DHT22;4809;48.224;8.572;2023-05-24T06:33:29;11.90;99.90
9542;DHT22;4809;48.224;8.572;2023-05-24T06:35:56;12.00;99.90
9542;DHT22;4809;48.224;8.572;2023-05-24T06:38:22;12.00;99.90
9542;DHT22;4809;48.224;8.572;2023-05-24T06:40:51;12.10;99.90
9542;DHT22;4809;48.224;8.572;2023-05-24T06:43:16;12.00;99.90
9542;DHT22;4809;48.224;8.572;2023-05-24T06:45:42;11.80;99.90
9542;DHT22;4809;48.224;8.572;2023-05-24T06:48:08;11.80;99.90
9542;DHT22;4809;48.224;8.572;2023-05-24T06:50:34;11.70;99.90
9542;DHT22;4809;48.224;8.572;2023-05-24T06:53:01;11.80;99.90
9542;DHT22;4809;48.224;8.572;2023-05-24T06:55:27;11.90;99.90
9542;DHT22;4809;48.224;8.572;2023-05-24T06:57:53;11.90;99.90
9542;DHT22;4809;48.224;8.572;2023-05-24T07:00:19;11.90;99.90
9542;DHT22;4809;48.224;8.572;2023-05-24T07:02:45;11.90;99.90
9542;DHT22;4809;48.224;8.572;2023-05-24T07:05:10;12.00;99.90
9542;DHT22;4809;48.224;8.572;2023-05-24T07:07:45;12.00;99.90
9542;DHT22;4809;48.224;8.572;2023-05-24T07:10:12;12.10;99.90
9542;DHT22;4809;48.224;8.572;2023-05-24T07:12:38;12.20;99.90
9542;DHT22;4809;48.224;8.572;2023-05-24T07:15:04;12.20;99.90
9542;DHT22;4809;48.224;8.572;2023-05-24T07:17:30;12.20;99.90
9542;DHT22;4809;48.224;8.572;2023-05-24T07:19:56;12.30;99.90
9542;DHT22;4809;48.224;8.572;2023-05-24T07:22:22;12.30;99.90
9542;DHT22;4809;48.224;8.572;2023-05-24T07:24:49;12.30;99.90
9542;DHT22;4809;48.224;8.572;2023-05-24T07:27:15;12.40;99.90
9542;DHT22;4809;48.224;8.572;2023-05-24T07:29:41;12.50;99.90
9542;DHT22;4809;48.224;8.572;2023-05-24T07:32:07;12.60;99.90
9542;DHT22;4809;48.224;8.572;2023-05-24T07:34:36;12.60;99.90
9542;DHT22;4809;48.224;8.572;2023-05-24T07:37:04;12.70;99.90
9542;DHT22;4809;48.224;8.572;2023-05-24T07:39:29;12.70;99.90
9542;DHT22;4809;48.224;8.572;2023-05-24T07:41:55;12.70;99.90
9542;DHT22;4809;48.224;8.572;2023-05-24T07:44:21;12.90;99.90
9542;DHT22;4809;48.224;8.572;2023-05-24T07:46:48;12.90;99.90
9542;DHT22;4809;48.224;8.572;2023-05-24T07:49:14;13.00;99.90
9542;DHT22;4809;48.224;8.572;2023-05-24T07:51:40;13.10;99.90
9542;DHT22;4809;48.224;8.572;2023-05-24T07:54:06;13.20;99.90
9542;DHT22;4809;48.224;8.572;2023-05-24T07:56:31;13.30;99.90
9542;DHT22;4809;48.224;8.572;2023-05-24T07:58:57;13.30;99.90
9542;DHT22;4809;48.224;8.572;2023-05-24T08:01:32;13.50;99.90
9542;DHT22;4809;48.224;8.572;2023-05-24T08:03:59;13.70;99.90
9542;DHT22;4809;48.224;8.572;2023-05-24T08:06:26;13.90;99.90
9542;DHT22;4809;48.224;8.572;2023-05-24T08:08:52;14.00;99.90
9542;DHT22;4809;48.224;8.572;2023-05-24T08:11:18;14.20;99.90
9542;DHT22;4809;48.224;8.572;2023-05-24T08:13:44;14.30;99.90
9542;DHT22;4809;48.224;8.572;2023-05-24T08:16:09;14.30;99.90
9542;DHT22;4809;48.224;8.572;2023-05-24T08:18:35;14.40;99.90
9542;DHT22;4809;48.224;8.572;2023-05-24T08:21:01;14.30;99.90
9542;DHT22;4809;48.224;8.572;2023-05-24T08:23:26;14.40;99.90
9542;DHT22;4809;48.224;8.572;2023-05-24T08:25:55;14.40;99.90
9542;DHT22;4809;48.224;8.572;2023-05-24T08:28:21;14.30;99.90
9542;DHT22;4809;48.224;8.572;2023-05-24T08:30:47;14.40;99.90
9542;DHT22;4809;48.224;8.572;2023-05-24T08:33:12;14.30;99.90
9542;DHT22;4809;48.224;8.572;2023-05-24T08:35:38;14.50;99.90
9542;DHT22;4809;48.224;8.572;2023-05-24T08:38:05;14.50;99.90
9542;DHT22;4809;48.224;8.572;2023-05-24T08:40:31;14.70;99.90
9542;DHT22;4809;48.224;8.572;2023-05-24T08:42:59;14.70;99.90
9542;DHT22;4809;48.224;8.572;2023-05-24T08:45:28;14.60;99.90
9542;DHT22;4809;48.224;8.572;2023-05-24T08:47:55;14.50;99.90
9542;DHT22;4809;48.224;8.572;2023-05-24T08:50:21;14.40;99.90
9542;DHT22;4809;48.224;8.572;2023-05-24T08:52:48;14.30;99.90
9542;DHT22;4809;48.224;8.572;2023-05-24T08:55:15;14.30;99.90
9542;DHT22;4809;48.224;8.572;2023-05-24T08:57:41;14.30;99.90
9542;DHT22;4809;48.224;8.572;2023-05-24T09:00:10;14.30;99.90
9542;DHT22;4809;48.224;8.572;2023-05-24T09:02:43;14.20;99.90
9542;DHT22;4809;48.224;8.572;2023-05-24T09:05:13;14.20;99.90
9542;DHT22;4809;48.224;8.572;2023-05-24T09:07:47;14.20;99.90
9542;DHT22;4809;48.224;8.572;2023-05-24T09:10:13;14.20;99.90
9542;DHT22;4809;48.224;8.572;2023-05-24T09:12:43;14.00;99.90
9542;DHT22;4809;48.224;8.572;2023-05-24T09:15:10;14.00;99.90
9542;DHT22;4809;48.224;8.572;2023-05-24T09:17:37;13.90;99.90
9542;DHT22;4809;48.224;8.572;2023-05-24T09:20:06;13.70;99.90
9542;DHT22;4809;48.224;8.572;2023-05-24T09:22:36;13.60;99.90
9542;DHT22;4809;48.224;8.572;2023-05-24T09:25:05;13.50;99.90
9542;DHT22;4809;48.224;8.572;2023-05-24T09:27:32;13.40;99.90
9542;DHT22;4809;48.224;8.572;2023-05-24T09:30:02;13.30;99.90
9542;DHT22;4809;48.224;8.572;2023-05-24T09:32:30;13.30;99.90
9542;DHT22;4809;48.224;8.572;2023-05-24T09:34:57;13.30;99.90
9542;DHT22;4809;48.224;8.572;2023-05-24T09:37:25;13.20;99.90
9542;DHT22;4809;48.224;8.572;2023-05-24T09:39:54;13.20;99.90
9542;DHT22;4809;48.224;8.572;2023-05-24T09:42:21;13.20;99.90
9542;DHT22;4809;48.224;8.572;2023-05-24T09:45:07;13.30;99.90
9542;DHT22;4809;48.224;8.572;2023-05-24T09:47:35;13.40;99.90
9542;DHT22;4809;48.224;8.572;2023-05-24T09:50:03;13.50;99.90
9542;DHT22;4809;48.224;8.572;2023-05-24T09:52:29;13.70;99.90
9542;DHT22;4809;48.224;8.572;2023-05-24T09:54:55;13.80;99.90
9542;DHT22;4809;48.224;8.572;2023-05-24T09:57:21;13.90;99.90
9542;DHT22;4809;48.224;8.572;2023-05-24T09:59:48;14.00;99.90
9542;DHT22;4809;48.224;8.572;2023-05-24T10:02:15;14.10;99.90
9542;DHT22;4809;48.224;8.572;2023-05-24T10:04:43;14.10;99.90
9542;DHT22;4809;48.224;8.572;2023-05-24T10:07:09;14.00;99.90
9542;DHT22;4809;48.224;8.572;2023-05-24T10:09:37;13.90;99.90
9542;DHT22;4809;48.224;8.572;2023-05-24T10:12:04;13.80;99.90
9542;DHT22;4809;48.224;8.572;2023-05-24T10:14:40;13.70;99.90
9542;DHT22;4809;48.224;8.572;2023-05-24T10:17:07;13.70;99.90
9542;DHT22;4809;48.224;8.572;2023-05-24T10:19:33;13.80;99.90
9542;DHT22;4809;48.224;8.572;2023-05-24T10:22:00;13.90;99.90
9542;DHT22;4809;48.224;8.572;2023-05-24T10:24:35;14.00;99.90
9542;DHT22;4809;48.224;8.572;2023-05-24T10:27:06;14.00;99.90
9542;DHT22;4809;48.224;8.572;2023-05-24T10:32:30;14.10;99.90
9542;DHT22;4809;48.224;8.572;2023-05-24T10:34:59;14.20;99.90
9542;DHT22;4809;48.224;8.572;2023-05-24T10:37:26;14.30;99.90
9542;DHT22;4809;48.224;8.572;2023-05-24T10:39:52;14.30;99.90
9542;DHT22;4809;48.224;8.572;2023-05-24T10:42:18;14.30;99.90
9542;DHT22;4809;48.224;8.572;2023-05-24T10:44:44;14.40;99.90
9542;DHT22;4809;48.224;8.572;2023-05-24T10:47:11;14.60;99.90
9542;DHT22;4809;48.224;8.572;2023-05-24T10:49:48;14.90;99.90
9542;DHT22;4809;48.224;8.572;2023-05-24T10:52:18;15.00;99.90
9542;DHT22;4809;48.224;8.572;2023-05-24T10:55:07;15.20;99.90
9542;DHT22;4809;48.224;8.572;2023-05-24T10:57:37;15.40;99.90
9542;DHT22;4809;48.224;8.572;2023-05-24T11:03:12;15.40;99.90
9542;DHT22;4809;48.224;8.572;2023-05-24T11:05:49;15.50;99.90
9542;DHT22;4809;48.224;8.572;2023-05-24T11:08:33;15.70;99.90
9542;DHT22;4809;48.224;8.572;2023-05-24T11:11:09;15.80;99.90
9542;DHT22;4809;48.224;8.572;2023-05-24T11:13:37;15.80;99.90
9542;DHT22;4809;48.224;8.572;2023-05-24T11:16:04;15.80;99.90
9542;DHT22;4809;48.224;8.572;2023-05-24T11:18:29;15.90;99.90
9542;DHT22;4809;48.224;8.572;2023-05-24T11:20:56;15.80;99.90
9542;DHT22;4809;48.224;8.572;2023-05-24T11:23:24;15.70;99.90
9542;DHT22;4809;48.224;8.572;2023-05-24T11:25:50;15.60;99.90
9542;DHT22;4809;48.224;8.572;2023-05-24T11:28:16;15.30;99.90
9542;DHT22;4809;48.224;8.572;2023-05-24T11:30:44;15.20;99.90
9542;DHT22;4809;48.224;8.572;2023-05-24T11:35:39;15.30;99.90
9542;DHT22;4809;48.224;8.572;2023-05-24T11:38:09;15.20;99.90
9542;DHT22;4809;48.224;8.572;2023-05-24T11:40:39;15.20;99.90
9542;DHT22;4809;48.224;8.572;2023-05-24T11:43:12;15.20;99.90
9542;DHT22;4809;48.224;8.572;2023-05-24T11:45:42;15.20;99.90
9542;DHT22;4809;48.224;8.572;2023-05-24T11:48:09;15.20;99.90
9542;DHT22;4809;48.224;8.572;2023-05-24T11:50:39;15.10;99.90
9542;DHT22;4809;48.224;8.572;2023-05-24T11:53:08;15.10;99.90
9542;DHT22;4809;48.224;8.572;2023-05-24T11:55:34;15.10;99.90
9542;DHT22;4809;48.224;8.572;2023-05-24T11:58:01;15.10;99.90
9542;DHT22;4809;48.224;8.572;2023-05-24T12:00:28;15.10;99.90
9542;DHT22;4809;48.224;8.572;2023-05-24T12:02:57;15.00;99.90
9542;DHT22;4809;48.224;8.572;2023-05-24T12:05:31;14.90;99.90
9542;DHT22;4809;48.224;8.572;2023-05-24T12:08:07;14.80;99.90
9542;DHT22;4809;48.224;8.572;2023-05-24T12:10:38;14.60;99.90
9542;DHT22;4809;48.224;8.572;2023-05-24T12:13:05;14.60;99.90
9542;DHT22;4809;48.224;8.572;2023-05-24T12:15:32;14.70;99.90
9542;DHT22;4809;48.224;8.572;2023-05-24T12:17:58;14.80;99.90
9542;DHT22;4809;48.224;8.572;2023-05-24T12:20:26;14.80;99.90
9542;DHT22;4809;48.224;8.572;2023-05-24T12:22:53;14.80;99.90
9542;DHT22;4809;48.224;8.572;2023-05-24T12:25:20;14.90;99.90
9542;DHT22;4809;48.224;8.572;2023-05-24T12:27:53;14.90;99.90
9542;DHT22;4809;48.224;8.572;2023-05-24T12:30:25;15.10;99.90
9542;DHT22;4809;48.224;8.572;2023-05-24T12:32:51;15.10;99.90
9542;DHT22;4809;48.224;8.572;2023-05-24T12:35:20;15.20;99.90
9542;DHT22;4809;48.224;8.572;2023-05-24T12:37:47;15.30;99.90
9542;DHT22;4809;48.224;8.572;2023-05-24T12:40:17;15.50;99.90
9542;DHT22;4809;48.224;8.572;2023-05-24T12:43:06;15.50;99.90
9542;DHT22;4809;48.224;8.572;2023-05-24T12:45:31;15.50;99.90
9542;DHT22;4809;48.224;8.572;2023-05-24T12:47:58;15.50;99.90
9542;DHT22;4809;48.224;8.572;2023-05-24T12:50:25;15.40;99.90
9542;DHT22;4809;48.224;8.572;2023-05-24T12:52:52;15.40;99.90
9542;DHT22;4809;48.224;8.572;2023-05-24T12:55:22;15.40;99.90
9542;DHT22;4809;48.224;8.572;2023-05-24T12:57:48;15.40;99.90
9542;DHT22;4809;48.224;8.572;2023-05-24T13:00:24;15.50;99.90
9542;DHT22;4809;48.224;8.572;2023-05-24T13:02:57;15.70;99.90
9542;DHT22;4809;48.224;8.572;2023-05-24T13:05:27;15.70;99.90
9542;DHT22;4809;48.224;8.572;2023-05-24T13:07:54;15.90;99.90
9542;DHT22;4809;48.224;8.572;2023-05-24T13:10:21;16.20;99.90
9542;DHT22;4809;48.224;8.572;2023-05-24T13:12:47;16.50;99.90
9542;DHT22;4809;48.224;8.572;2023-05-24T13:15:13;16.50;99.90
9542;DHT22;4809;48.224;8.572;2023-05-24T13:17:40;16.60;99.90
9542;DHT22;4809;48.224;8.572;2023-05-24T13:20:07;16.60;99.90
9542;DHT22;4809;48.224;8.572;2023-05-24T13:22:37;16.60;99.90
9542;DHT22;4809;48.224;8.572;2023-05-24T13:25:03;16.70;99.90
9542;DHT22;4809;48.224;8.572;2023-05-24T13:27:29;16.70;99.90
9542;DHT22;4809;48.224;8.572;2023-05-24T13:29:55;16.60;99.90
9542;DHT22;4809;48.224;8.572;2023-05-24T13:32:21;16.80;99.90
9542;DHT22;4809;48.224;8.572;2023-05-24T13:34:47;17.40;99.90
9542;DHT22;4809;48.224;8.572;2023-05-24T13:37:13;17.80;99.90
9542;DHT22;4809;48.224;8.572;2023-05-24T13:39:41;18.10;99.90
9542;DHT22;4809;48.224;8.572;2023-05-24T13:42:07;18.50;99.90
9542;DHT22;4809;48.224;8.572;2023-05-24T13:44:34;18.70;98.00
9542;DHT22;4809;48.224;8.572;2023-05-24T13:46:59;18.40;96.30
9542;DHT22;4809;48.224;8.572;2023-05-24T13:49:25;18.60;97.80
9542;DHT22;4809;48.224;8.572;2023-05-24T13:51:52;19.10;97.50
9542;DHT22;4809;48.224;8.572;2023-05-24T13:54:18;19.30;94.70
9542;DHT22;4809;48.224;8.572;2023-05-24T13:56:43;19.60;93.50
9542;DHT22;4809;48.224;8.572;2023-05-24T13:59:09;19.90;90.90
9542;DHT22;4809;48.224;8.572;2023-05-24T14:01:36;19.90;91.00
9542;DHT22;4809;48.224;8.572;2023-05-24T14:04:03;20.10;90.50
9542;DHT22;4809;48.224;8.572;2023-05-24T14:06:30;19.60;89.10
9542;DHT22;4809;48.224;8.572;2023-05-24T14:08:59;19.00;89.60
9542;DHT22;4809;48.224;8.572;2023-05-24T14:11:26;18.20;88.80
9542;DHT22;4809;48.224;8.572;2023-05-24T14:13:55;18.20;92.80
9542;DHT22;4809;48.224;8.572;2023-05-24T14:16:21;18.60;90.60
9542;DHT22;4809;48.224;8.572;2023-05-24T14:18:47;19.00;92.80
9542;DHT22;4809;48.224;8.572;2023-05-24T14:21:14;19.20;89.50
9542;DHT22;4809;48.224;8.572;2023-05-24T14:23:40;19.50;90.40
9542;DHT22;4809;48.224;8.572;2023-05-24T14:26:06;19.50;90.30
9542;DHT22;4809;48.224;8.572;2023-05-24T14:28:32;19.50;89.00
9542;DHT22;4809;48.224;8.572;2023-05-24T14:30:57;19.70;87.80
9542;DHT22;4809;48.224;8.572;2023-05-24T14:33:23;19.80;83.00
9542;DHT22;4809;48.224;8.572;2023-05-24T14:35:49;19.90;81.70
9542;DHT22;4809;48.224;8.572;2023-05-24T14:38:16;19.80;82.70
9542;DHT22;4809;48.224;8.572;2023-05-24T14:40:42;19.90;87.30
9542;DHT22;4809;48.224;8.572;2023-05-24T14:43:11;20.30;82.50
9542;DHT22;4809;48.224;8.572;2023-05-24T14:45:38;20.40;75.30
9542;DHT22;4809;48.224;8.572;2023-05-24T14:48:05;20.60;76.10
9542;DHT22;4809;48.224;8.572;2023-05-24T14:50:31;20.80;75.00
9542;DHT22;4809;48.224;8.572;2023-05-24T14:52:57;20.70;71.50
9542;DHT22;4809;48.224;8.572;2023-05-24T14:55:23;20.70;65.10
9542;DHT22;4809;48.224;8.572;2023-05-24T14:57:49;20.70;66.50
9542;DHT22;4809;48.224;8.572;2023-05-24T15:00:16;20.70;67.80
9542;DHT22;4809;48.224;8.572;2023-05-24T15:02:42;20.60;68.60
9542;DHT22;4809;48.224;8.572;2023-05-24T15:05:08;20.50;67.80
9542;DHT22;4809;48.224;8.572;2023-05-24T15:07:33;20.60;70.90
9542;DHT22;4809;48.224;8.572;2023-05-24T15:09:59;20.50;69.90
9542;DHT22;4809;48.224;8.572;2023-05-24T15:12:25;20.70;65.20
9542;DHT22;4809;48.224;8.572;2023-05-24T15:14:51;20.60;64.50
9542;DHT22;4809;48.224;8.572;2023-05-24T15:17:17;20.80;63.20
9542;DHT22;4809;48.224;8.572;2023-05-24T15:19:42;20.70;65.90
9542;DHT22;4809;48.224;8.572;2023-05-24T15:22:08;20.80;63.40
9542;DHT22;4809;48.224;8.572;2023-05-24T15:24:35;20.80;60.60
9542;DHT22;4809;48.224;8.572;2023-05-24T15:27:01;20.60;56.80
9542;DHT22;4809;48.224;8.572;2023-05-24T15:29:27;20.60;61.70
9542;DHT22;4809;48.224;8.572;2023-05-24T15:31:57;20.80;63.00
9542;DHT22;4809;48.224;8.572;2023-05-24T15:34:24;20.90;58.00
9542;DHT22;4809;48.224;8.572;2023-05-24T15:36:50;21.10;60.50
9542;DHT22;4809;48.224;8.572;2023-05-24T15:39:16;21.20;58.10
9542;DHT22;4809;48.224;8.572;2023-05-24T15:41:43;21.00;56.90
9542;DHT22;4809;48.224;8.572;2023-05-24T15:44:08;20.70;56.50
9542;DHT22;4809;48.224;8.572;2023-05-24T15:46:35;20.70;54.80
9542;DHT22;4809;48.224;8.572;2023-05-24T15:49:01;20.70;56.50
9542;DHT22;4809;48.224;8.572;2023-05-24T15:51:27;20.60;55.30
9542;DHT22;4809;48.224;8.572;2023-05-24T15:53:53;20.50;54.90
9542;DHT22;4809;48.224;8.572;2023-05-24T15:56:18;20.40;55.70
9542;DHT22;4809;48.224;8.572;2023-05-24T15:58:45;20.40;56.40
9542;DHT22;4809;48.224;8.572;2023-05-24T16:01:11;20.30;59.30
9542;DHT22;4809;48.224;8.572;2023-05-24T16:03:37;20.60;56.90
9542;DHT22;4809;48.224;8.572;2023-05-24T16:06:04;20.50;57.70
9542;DHT22;4809;48.224;8.572;2023-05-24T16:08:29;20.50;56.40
9542;DHT22;4809;48.224;8.572;2023-05-24T16:10:55;20.40;58.10
9542;DHT22;4809;48.224;8.572;2023-05-24T16:13:24;20.20;59.00
9542;DHT22;4809;48.224;8.572;2023-05-24T16:15:50;19.90;58.60
9542;DHT22;4809;48.224;8.572;2023-05-24T16:18:17;19.80;59.90
9542;DHT22;4809;48.224;8.572;2023-05-24T16:20:46;19.60;60.70